createdAt,value
2019-01-20T00:06:50.295Z,92.93
2019-01-20T00:13:17.371Z,92.96
2019-01-20T00:19:41.173Z,93.14
2019-01-20T00:26:22.344Z,92.87
2019-01-20T00:32:49.173Z,93.53
2019-01-20T00:39:14.991Z,93.27
2019-01-20T00:45:40.806Z,93.10
2019-01-20T00:52:17.742Z,92.70
2019-01-20T00:58:43.309Z,92.35
2019-01-20T01:08:47.476Z,92.85
2019-01-20T01:15:14.146Z,92.82
2019-01-20T01:21:53.112Z,93.97
2019-01-20T01:28:23.868Z,93.26
2019-01-20T01:34:50.009Z,93.78
2019-01-20T01:41:28.965Z,94.44
2019-01-20T01:47:54.781Z,94.62
2019-01-20T01:54:20.376Z,94.24
2019-01-20T02:00:46.227Z,94.80
2019-01-20T02:10:13.951Z,94.87
2019-01-20T02:16:54.002Z,94.91
2019-01-20T02:23:20.793Z,94.93
2019-01-20T02:29:11.306Z,93.94
2019-01-20T02:35:39.730Z,94.53
2019-01-20T02:42:19.911Z,93.73
2019-01-20T02:48:48.959Z,93.58
2019-01-20T02:55:16.800Z,93.52
2019-01-20T03:01:55.751Z,93.32
2019-01-20T03:12:10.724Z,93.92
2019-01-20T03:18:37.670Z,94.21
2019-01-20T03:25:03.236Z,93.45
2019-01-20T03:30:54.972Z,93.49
2019-01-20T03:37:33.919Z,93.05
2019-01-20T03:43:59.740Z,93.38
2019-01-20T03:50:27.384Z,93.86
2019-01-20T03:56:54.048Z,93.91
2019-01-20T04:03:33.003Z,94.20
2019-01-20T04:13:33.085Z,94.51
2019-01-20T04:20:03.028Z,95.00
2019-01-20T04:26:33.797Z,95.02
2019-01-20T04:33:10.699Z,94.99
2019-01-20T04:39:38.600Z,95.34
2019-01-20T04:46:05.264Z,95.77
2019-01-20T04:52:44.263Z,95.63
2019-01-20T04:59:08.382Z,95.61
2019-01-20T05:05:34.215Z,95.80
2019-01-20T05:15:40.218Z,96.10
2019-01-20T05:22:05.020Z,96.22
2019-01-20T05:28:45.991Z,96.50
2019-01-20T05:35:13.627Z,96.34
2019-01-20T05:41:40.289Z,96.53
2019-01-20T05:48:19.616Z,96.48
2019-01-20T05:54:45.433Z,96.71
2019-01-20T06:01:08.895Z,97.09
2019-01-20T06:07:37.075Z,96.96
2019-01-20T06:17:11.764Z,97.38
2019-01-20T06:23:48.695Z,97.61
2019-01-20T06:29:38.154Z,97.73
2019-01-20T06:36:03.979Z,97.71
2019-01-20T06:42:27.429Z,97.60
2019-01-20T06:49:13.793Z,97.22
2019-01-20T06:55:45.674Z,96.57
2019-01-20T07:02:13.516Z,96.10
2019-01-20T07:08:50.443Z,95.67
2019-01-20T07:19:04.526Z,94.52
2019-01-20T07:25:28.321Z,94.47
2019-01-20T07:31:18.576Z,94.13
2019-01-20T07:37:45.624Z,93.74
2019-01-20T07:44:24.569Z,93.80
2019-01-20T07:50:52.408Z,93.75
2019-01-20T07:57:24.097Z,93.50
2019-01-20T08:04:01.004Z,93.49
2019-01-20T08:10:32.103Z,93.87
2019-01-20T08:20:37.080Z,93.78
2019-01-20T08:27:02.903Z,93.94
2019-01-20T08:32:52.363Z,94.16
2019-01-20T08:39:31.315Z,94.00
2019-01-20T08:46:20.162Z,94.28
2019-01-20T08:52:50.104Z,94.47
2019-01-20T08:59:18.011Z,94.06
2019-01-20T09:05:56.001Z,93.65
2019-01-20T09:11:58.602Z,93.40
2019-01-20T09:22:13.470Z,93.19
2019-01-20T09:28:39.316Z,93.27
2019-01-20T09:35:06.339Z,93.24
2019-01-20T09:41:29.794Z,92.45
2019-01-20T09:47:55.958Z,92.62
2019-01-20T09:54:21.782Z,92.40
2019-01-20T10:00:49.398Z,91.75
2019-01-20T10:06:43.120Z,92.12
2019-01-20T10:13:13.648Z,91.86
2019-01-20T10:23:31.100Z,91.01
2019-01-20T10:30:13.084Z,91.32
2019-01-20T10:36:52.030Z,91.34
2019-01-20T10:43:35.069Z,91.28
2019-01-20T10:50:13.971Z,91.06
2019-01-20T10:56:42.428Z,90.87
2019-01-20T11:03:09.510Z,90.59
2019-01-20T11:09:41.530Z,89.79
2019-01-20T11:16:14.568Z,90.14
2019-01-20T11:26:04.259Z,89.79
2019-01-20T11:32:44.221Z,89.77
2019-01-20T11:39:23.171Z,89.65
2019-01-20T11:46:02.124Z,89.01
2019-01-20T11:52:41.068Z,89.13
2019-01-20T11:59:18.001Z,89.48
2019-01-20T12:05:56.945Z,89.72
2019-01-20T12:12:33.879Z,89.57
2019-01-20T12:19:12.848Z,89.64
2019-01-20T12:28:49.541Z,89.09
2019-01-20T12:35:17.379Z,88.68
2019-01-20T12:41:42.191Z,88.85
2019-01-20T12:48:20.134Z,88.54
2019-01-20T12:54:59.089Z,88.62
2019-01-20T13:01:42.745Z,88.59
2019-01-20T13:08:01.832Z,88.34
2019-01-20T13:14:41.420Z,88.56
2019-01-20T13:18:25.008Z,88.55
2019-01-20T13:24:39.750Z,87.68
2019-01-20T13:31:17.653Z,88.17
2019-01-20T13:37:42.462Z,87.87
2019-01-20T13:44:08.290Z,88.01
2019-01-20T13:50:31.848Z,88.50
2019-01-20T13:56:57.694Z,87.90
2019-01-20T14:03:21.500Z,87.67
2019-01-20T14:09:17.868Z,87.69
2019-01-20T14:15:46.081Z,87.94
2019-01-20T14:25:52.075Z,87.64
2019-01-20T14:32:18.903Z,87.55
2019-01-20T14:38:46.741Z,87.88
2019-01-20T14:45:32.462Z,87.80
2019-01-20T14:52:11.711Z,88.67
2019-01-20T14:58:39.557Z,89.21
2019-01-20T15:05:14.286Z,89.06
2019-01-20T15:11:39.208Z,89.29
2019-01-20T15:18:08.751Z,89.10
2019-01-20T15:28:32.986Z,89.58
2019-01-20T15:35:05.197Z,89.84
2019-01-20T15:41:32.022Z,90.60
2019-01-20T15:47:59.566Z,90.50
2019-01-20T15:54:27.446Z,91.08
2019-01-20T16:00:23.000Z,91.03
2019-01-20T16:06:48.834Z,91.40
2019-01-20T16:13:15.872Z,91.61
2019-01-20T16:19:41.690Z,91.90
2019-01-20T16:29:46.682Z,92.10
2019-01-20T16:35:50.077Z,91.85
2019-01-20T16:42:17.108Z,92.52
2019-01-20T16:48:42.933Z,92.42
2019-01-20T16:55:08.752Z,92.59
2019-01-20T17:01:34.569Z,92.64
2019-01-20T17:08:02.192Z,92.46
2019-01-20T17:14:28.863Z,92.39
2019-01-20T17:20:58.094Z,92.18
2019-01-20T17:31:14.921Z,92.25
2019-01-20T17:37:08.347Z,92.49
2019-01-20T17:43:38.563Z,92.21
2019-01-20T17:50:09.436Z,92.68
2019-01-20T17:56:37.270Z,92.67
2019-01-20T18:03:04.857Z,92.64
2019-01-20T18:09:32.760Z,92.63
2019-01-20T18:15:59.782Z,92.14
2019-01-20T18:22:25.600Z,92.23
2019-01-20T18:32:26.551Z,92.22
2019-01-20T18:38:32.173Z,92.32
2019-01-20T18:45:15.820Z,92.42
2019-01-20T18:51:55.123Z,92.18
2019-01-20T18:58:28.000Z,92.29
2019-01-20T19:04:55.486Z,92.13
2019-01-20T19:11:23.697Z,92.00
2019-01-20T19:17:49.514Z,91.89
2019-01-20T19:24:15.331Z,92.25
2019-01-20T19:33:34.875Z,92.37
2019-01-20T19:40:13.826Z,92.06
2019-01-20T19:46:52.703Z,91.48
2019-01-20T19:53:18.375Z,91.79
2019-01-20T19:59:54.510Z,91.63
2019-01-20T20:06:21.143Z,91.74
2019-01-20T20:12:49.849Z,91.29
2019-01-20T20:19:20.054Z,91.22
2019-01-20T20:25:45.869Z,91.41
2019-01-20T20:31:39.372Z,91.13
2019-01-20T20:38:04.995Z,90.95
2019-01-20T20:44:28.790Z,90.73
2019-01-20T20:50:52.797Z,90.68
2019-01-20T20:57:16.395Z,91.18
2019-01-20T21:03:43.066Z,90.68
2019-01-20T21:10:13.280Z,90.73
2019-01-20T21:16:02.740Z,90.92
2019-01-20T21:22:28.560Z,90.71
2019-01-20T21:28:55.390Z,90.33
2019-01-20T21:38:45.991Z,90.38
2019-01-20T21:45:24.946Z,90.27
2019-01-20T21:52:02.118Z,90.32
2019-01-20T21:58:42.862Z,90.21
2019-01-20T22:05:19.767Z,90.38
2019-01-20T22:11:52.580Z,90.35
2019-01-20T22:18:20.504Z,90.17
2019-01-20T22:24:46.328Z,89.77
2019-01-20T22:31:12.185Z,90.11
2019-01-20T22:41:28.497Z,90.08
2019-01-20T22:47:56.127Z,90.06
2019-01-20T22:54:24.170Z,90.53
2019-01-20T23:01:23.321Z,90.31
2019-01-20T23:07:50.947Z,90.47
2019-01-20T23:14:04.861Z,90.28
2019-01-20T23:20:32.700Z,90.11
2019-01-20T23:26:58.520Z,90.07
2019-01-20T23:33:26.980Z,90.23
2019-01-20T23:43:31.144Z,90.54
2019-01-20T23:50:10.921Z,90.31
2019-01-20T23:56:49.880Z,89.80
